MDST - Santiago (Cibao)
MDST 230400Z 00000KT 9999 SCT016 SCT300 24/24 Q1014 NOSIG
Observed:
visibility:
Flight Rules:
Cloud Levels:
Temperature:
Humidity:
Pressure: